sensor_id;sensor_type;location;lat;lon;timestamp;pressure;altitude;pressure_sealevel;temperature;humidity
73974;BME280;62336;-26.094;27.994;2023-04-24T00:00:49;84950.65;;;31.14;11.05
73974;BME280;62336;-26.094;27.994;2023-04-24T00:03:14;84950.75;;;31.18;11.19
73974;BME280;62336;-26.094;27.994;2023-04-24T00:05:40;84948.83;;;31.34;11.26
73974;BME280;62336;-26.094;27.994;2023-04-24T00:08:06;84949.15;;;31.08;11.37
73974;BME280;62336;-26.094;27.994;2023-04-24T00:10:31;84947.23;;;31.16;11.45
73974;BME280;62336;-26.094;27.994;2023-04-24T00:12:57;84945.16;;;31.28;11.13
73974;BME280;62336;-26.094;27.994;2023-04-24T00:15:23;84943.80;;;31.35;11.17
73974;BME280;62336;-26.094;27.994;2023-04-24T00:17:49;84943.15;;;31.16;11.10
73974;BME280;62336;-26.094;27.994;2023-04-24T00:20:14;84939.89;;;30.76;11.32
73974;BME280;62336;-26.094;27.994;2023-04-24T00:22:40;84936.79;;;30.80;11.57
73974;BME280;62336;-26.094;27.994;2023-04-24T00:25:06;84935.04;;;30.82;11.55
73974;BME280;62336;-26.094;27.994;2023-04-24T00:27:31;84929.00;;;30.69;11.30
73974;BME280;62336;-26.094;27.994;2023-04-24T00:29:56;84930.16;;;30.92;11.31
73974;BME280;62336;-26.094;27.994;2023-04-24T00:32:22;84927.01;;;30.82;11.24
73974;BME280;62336;-26.094;27.994;2023-04-24T00:34:47;84927.30;;;30.81;11.61
73974;BME280;62336;-26.094;27.994;2023-04-24T00:37:12;84929.79;;;31.03;11.48
73974;BME280;62336;-26.094;27.994;2023-04-24T00:39:38;84930.30;;;30.87;11.43
73974;BME280;62336;-26.094;27.994;2023-04-24T00:42:03;84929.45;;;30.50;11.61
73974;BME280;62336;-26.094;27.994;2023-04-24T00:44:29;84930.97;;;30.91;11.73
73974;BME280;62336;-26.094;27.994;2023-04-24T00:46:55;84931.05;;;30.58;11.80
73974;BME280;62336;-26.094;27.994;2023-04-24T00:49:22;84929.25;;;30.46;11.51
73974;BME280;62336;-26.094;27.994;2023-04-24T00:51:44;84927.69;;;30.64;11.80
73974;BME280;62336;-26.094;27.994;2023-04-24T00:54:09;84928.04;;;30.40;11.49
73974;BME280;62336;-26.094;27.994;2023-04-24T00:56:35;84929.30;;;30.69;11.76
73974;BME280;62336;-26.094;27.994;2023-04-24T00:59:02;84926.04;;;30.36;11.75
73974;BME280;62336;-26.094;27.994;2023-04-24T01:01:25;84921.67;;;30.56;11.89
73974;BME280;62336;-26.094;27.994;2023-04-24T01:03:54;84919.69;;;30.36;12.43
73974;BME280;62336;-26.094;27.994;2023-04-24T01:06:17;84915.16;;;30.04;12.21
73974;BME280;62336;-26.094;27.994;2023-04-24T01:08:43;84915.81;;;30.36;11.94
73974;BME280;62336;-26.094;27.994;2023-04-24T01:11:08;84912.73;;;29.87;11.92
73974;BME280;62336;-26.094;27.994;2023-04-24T01:13:34;84910.04;;;30.37;11.72
73974;BME280;62336;-26.094;27.994;2023-04-24T01:15:58;84911.31;;;30.40;11.83
73974;BME280;62336;-26.094;27.994;2023-04-24T01:18:25;84913.60;;;30.77;11.74
73974;BME280;62336;-26.094;27.994;2023-04-24T01:20:50;84913.92;;;30.24;12.03
73974;BME280;62336;-26.094;27.994;2023-04-24T01:23:14;84914.15;;;30.40;12.04
73974;BME280;62336;-26.094;27.994;2023-04-24T01:25:40;84913.35;;;29.97;12.00
73974;BME280;62336;-26.094;27.994;2023-04-24T01:28:05;84907.36;;;30.73;11.93
73974;BME280;62336;-26.094;27.994;2023-04-24T01:30:31;84907.55;;;30.45;12.55
73974;BME280;62336;-26.094;27.994;2023-04-24T01:32:57;84907.96;;;30.05;11.98
73974;BME280;62336;-26.094;27.994;2023-04-24T01:35:22;84908.55;;;30.61;11.62
73974;BME280;62336;-26.094;27.994;2023-04-24T01:37:47;84904.42;;;29.85;11.80
73974;BME280;62336;-26.094;27.994;2023-04-24T01:40:12;84900.27;;;30.43;11.92
73974;BME280;62336;-26.094;27.994;2023-04-24T01:42:38;84896.16;;;30.52;11.83
73974;BME280;62336;-26.094;27.994;2023-04-24T01:45:04;84895.55;;;30.52;11.95
73974;BME280;62336;-26.094;27.994;2023-04-24T01:47:28;84897.79;;;30.41;11.94
73974;BME280;62336;-26.094;27.994;2023-04-24T01:49:53;84894.37;;;30.63;11.34
73974;BME280;62336;-26.094;27.994;2023-04-24T01:52:18;84894.23;;;30.03;11.30
73974;BME280;62336;-26.094;27.994;2023-04-24T01:54:42;84890.05;;;30.28;11.73
73974;BME280;62336;-26.094;27.994;2023-04-24T01:57:08;84886.31;;;30.22;11.82
73974;BME280;62336;-26.094;27.994;2023-04-24T01:59:34;84887.54;;;30.32;11.54
73974;BME280;62336;-26.094;27.994;2023-04-24T02:01:59;84886.28;;;30.88;11.70
73974;BME280;62336;-26.094;27.994;2023-04-24T02:04:25;84888.34;;;30.66;11.56
73974;BME280;62336;-26.094;27.994;2023-04-24T02:06:49;84888.63;;;30.70;11.50
73974;BME280;62336;-26.094;27.994;2023-04-24T02:09:14;84887.64;;;30.13;11.49
73974;BME280;62336;-26.094;27.994;2023-04-24T02:11:39;84885.97;;;29.99;11.77
73974;BME280;62336;-26.094;27.994;2023-04-24T02:14:03;84885.54;;;30.44;11.80
73974;BME280;62336;-26.094;27.994;2023-04-24T02:16:29;84888.86;;;30.35;11.65
73974;BME280;62336;-26.094;27.994;2023-04-24T02:18:54;84890.26;;;30.42;11.42
73974;BME280;62336;-26.094;27.994;2023-04-24T02:21:19;84889.08;;;29.87;11.82
73974;BME280;62336;-26.094;27.994;2023-04-24T02:23:45;84890.19;;;30.12;11.83
73974;BME280;62336;-26.094;27.994;2023-04-24T02:26:10;84888.75;;;29.86;11.75
73974;BME280;62336;-26.094;27.994;2023-04-24T02:28:34;84886.12;;;29.88;11.96
73974;BME280;62336;-26.094;27.994;2023-04-24T02:31:02;84886.75;;;30.24;11.93
73974;BME280;62336;-26.094;27.994;2023-04-24T02:33:25;84891.33;;;30.11;12.07
73974;BME280;62336;-26.094;27.994;2023-04-24T02:35:50;84891.70;;;30.55;11.76
73974;BME280;62336;-26.094;27.994;2023-04-24T02:38:15;84888.44;;;29.34;11.93
73974;BME280;62336;-26.094;27.994;2023-04-24T02:40:40;84887.10;;;29.88;12.01
73974;BME280;62336;-26.094;27.994;2023-04-24T02:43:05;84886.02;;;29.90;12.15
73974;BME280;62336;-26.094;27.994;2023-04-24T02:45:30;84885.40;;;29.77;11.98
73974;BME280;62336;-26.094;27.994;2023-04-24T02:47:55;84887.35;;;29.89;11.88
73974;BME280;62336;-26.094;27.994;2023-04-24T02:50:20;84885.44;;;29.75;11.96
73974;BME280;62336;-26.094;27.994;2023-04-24T02:52:45;84888.03;;;30.16;12.06
73974;BME280;62336;-26.094;27.994;2023-04-24T02:55:10;84891.84;;;29.88;12.05
73974;BME280;62336;-26.094;27.994;2023-04-24T02:57:36;84894.68;;;30.10;11.87
73974;BME280;62336;-26.094;27.994;2023-04-24T03:00:05;84897.50;;;29.72;11.73
73974;BME280;62336;-26.094;27.994;2023-04-24T03:02:28;84899.64;;;29.75;11.90
73974;BME280;62336;-26.094;27.994;2023-04-24T03:04:52;84899.83;;;29.96;11.97
73974;BME280;62336;-26.094;27.994;2023-04-24T03:07:18;84898.40;;;29.65;11.83
73974;BME280;62336;-26.094;27.994;2023-04-24T03:09:43;84890.94;;;30.11;11.73
73974;BME280;62336;-26.094;27.994;2023-04-24T03:12:08;84883.23;;;30.05;11.89
73974;BME280;62336;-26.094;27.994;2023-04-24T03:14:33;84883.88;;;30.18;11.68
73974;BME280;62336;-26.094;27.994;2023-04-24T03:16:59;84884.35;;;29.77;11.72
73974;BME280;62336;-26.094;27.994;2023-04-24T03:19:24;84881.72;;;30.38;11.91
73974;BME280;62336;-26.094;27.994;2023-04-24T03:21:49;84881.63;;;29.77;11.98
73974;BME280;62336;-26.094;27.994;2023-04-24T03:24:14;84879.79;;;29.66;12.12
73974;BME280;62336;-26.094;27.994;2023-04-24T03:26:39;84876.99;;;30.05;12.10
73974;BME280;62336;-26.094;27.994;2023-04-24T03:29:04;84874.00;;;30.11;11.95
73974;BME280;62336;-26.094;27.994;2023-04-24T03:31:30;84876.97;;;30.17;12.03
73974;BME280;62336;-26.094;27.994;2023-04-24T03:33:54;84878.40;;;29.91;11.90
73974;BME280;62336;-26.094;27.994;2023-04-24T03:36:19;84880.14;;;30.05;11.78
73974;BME280;62336;-26.094;27.994;2023-04-24T03:38:44;84882.42;;;30.26;11.66
73974;BME280;62336;-26.094;27.994;2023-04-24T03:41:09;84884.56;;;30.14;11.71
73974;BME280;62336;-26.094;27.994;2023-04-24T03:43:35;84886.00;;;30.15;11.74
73974;BME280;62336;-26.094;27.994;2023-04-24T03:46:00;84884.93;;;30.32;11.64
73974;BME280;62336;-26.094;27.994;2023-04-24T03:48:26;84887.33;;;30.04;11.63
73974;BME280;62336;-26.094;27.994;2023-04-24T03:50:49;84888.37;;;30.07;11.80
73974;BME280;62336;-26.094;27.994;2023-04-24T03:53:14;84889.84;;;30.08;11.64
73974;BME280;62336;-26.094;27.994;2023-04-24T03:55:40;84889.04;;;30.19;11.71
73974;BME280;62336;-26.094;27.994;2023-04-24T03:58:04;84889.24;;;30.07;11.68
73974;BME280;62336;-26.094;27.994;2023-04-24T04:00:29;84889.99;;;29.75;12.07
73974;BME280;62336;-26.094;27.994;2023-04-24T04:02:54;84893.83;;;29.79;11.92
73974;BME280;62336;-26.094;27.994;2023-04-24T04:05:19;84892.36;;;29.99;11.90
73974;BME280;62336;-26.094;27.994;2023-04-24T04:07:45;84894.00;;;29.79;11.98
73974;BME280;62336;-26.094;27.994;2023-04-24T04:10:10;84899.99;;;30.20;11.72
73974;BME280;62336;-26.094;27.994;2023-04-24T04:12:35;84906.02;;;29.95;11.92
73974;BME280;62336;-26.094;27.994;2023-04-24T04:15:01;84907.15;;;29.90;11.98
73974;BME280;62336;-26.094;27.994;2023-04-24T04:17:27;84909.89;;;29.95;11.88
73974;BME280;62336;-26.094;27.994;2023-04-24T04:19:51;84909.43;;;29.67;12.24
73974;BME280;62336;-26.094;27.994;2023-04-24T04:22:15;84911.62;;;29.55;12.04
73974;BME280;62336;-26.094;27.994;2023-04-24T04:24:40;84906.15;;;29.76;12.09
73974;BME280;62336;-26.094;27.994;2023-04-24T04:27:06;84910.63;;;29.62;12.03
73974;BME280;62336;-26.094;27.994;2023-04-24T04:29:31;84911.92;;;29.70;12.05
73974;BME280;62336;-26.094;27.994;2023-04-24T04:31:56;84914.65;;;29.61;12.11
73974;BME280;62336;-26.094;27.994;2023-04-24T04:34:21;84917.75;;;29.67;12.09
73974;BME280;62336;-26.094;27.994;2023-04-24T04:36:48;84930.18;;;29.65;12.32
73974;BME280;62336;-26.094;27.994;2023-04-24T04:39:12;84934.94;;;29.53;12.34
73974;BME280;62336;-26.094;27.994;2023-04-24T04:41:37;84936.57;;;29.38;12.50
73974;BME280;62336;-26.094;27.994;2023-04-24T04:44:03;84938.57;;;29.65;12.28
73974;BME280;62336;-26.094;27.994;2023-04-24T04:46:28;84944.10;;;29.53;12.30
73974;BME280;62336;-26.094;27.994;2023-04-24T04:48:54;84946.49;;;29.34;12.64
73974;BME280;62336;-26.094;27.994;2023-04-24T04:51:21;84949.38;;;30.02;12.46
73974;BME280;62336;-26.094;27.994;2023-04-24T04:53:45;84953.64;;;29.34;12.56
73974;BME280;62336;-26.094;27.994;2023-04-24T04:56:11;84959.03;;;29.34;12.48
73974;BME280;62336;-26.094;27.994;2023-04-24T04:58:35;84962.60;;;29.53;12.61
73974;BME280;62336;-26.094;27.994;2023-04-24T05:01:03;84966.21;;;29.55;12.37
73974;BME280;62336;-26.094;27.994;2023-04-24T05:03:25;84971.03;;;29.68;12.63
73974;BME280;62336;-26.094;27.994;2023-04-24T05:05:51;84973.92;;;29.35;12.57
73974;BME280;62336;-26.094;27.994;2023-04-24T05:08:16;84977.26;;;29.75;12.49
73974;BME280;62336;-26.094;27.994;2023-04-24T05:10:40;84982.65;;;29.83;12.41
73974;BME280;62336;-26.094;27.994;2023-04-24T05:13:07;84985.92;;;29.76;12.44
73974;BME280;62336;-26.094;27.994;2023-04-24T05:15:31;84986.10;;;30.23;12.47
73974;BME280;62336;-26.094;27.994;2023-04-24T05:17:56;84988.24;;;30.05;12.42
73974;BME280;62336;-26.094;27.994;2023-04-24T05:20:22;84994.94;;;30.11;12.51
73974;BME280;62336;-26.094;27.994;2023-04-24T05:22:48;84999.04;;;30.02;12.60
73974;BME280;62336;-26.094;27.994;2023-04-24T05:25:14;84999.53;;;30.21;12.48
73974;BME280;62336;-26.094;27.994;2023-04-24T05:27:40;84999.15;;;30.05;12.65
73974;BME280;62336;-26.094;27.994;2023-04-24T05:30:04;85000.51;;;30.33;12.68
73974;BME280;62336;-26.094;27.994;2023-04-24T05:32:30;85001.71;;;30.48;12.69
73974;BME280;62336;-26.094;27.994;2023-04-24T05:34:54;85006.96;;;30.23;12.78
73974;BME280;62336;-26.094;27.994;2023-04-24T05:37:21;85009.76;;;30.31;13.03
73974;BME280;62336;-26.094;27.994;2023-04-24T05:39:44;85012.69;;;30.35;12.98
73974;BME280;62336;-26.094;27.994;2023-04-24T05:42:09;85011.79;;;30.81;12.96
73974;BME280;62336;-26.094;27.994;2023-04-24T05:44:34;85011.69;;;30.82;13.16
73974;BME280;62336;-26.094;27.994;2023-04-24T05:47:00;85013.92;;;30.72;13.34
73974;BME280;62336;-26.094;27.994;2023-04-24T05:49:26;85016.65;;;30.42;13.07
73974;BME280;62336;-26.094;27.994;2023-04-24T05:51:50;85020.87;;;31.00;14.17
73974;BME280;62336;-26.094;27.994;2023-04-24T05:54:14;85024.93;;;30.71;13.78
73974;BME280;62336;-26.094;27.994;2023-04-24T05:56:41;85026.12;;;30.66;13.76
73974;BME280;62336;-26.094;27.994;2023-04-24T05:59:06;85027.66;;;31.22;13.54
73974;BME280;62336;-26.094;27.994;2023-04-24T06:01:31;85024.04;;;31.14;13.10
73974;BME280;62336;-26.094;27.994;2023-04-24T06:03:56;85029.36;;;30.99;13.77
73974;BME280;62336;-26.094;27.994;2023-04-24T06:06:24;85033.21;;;30.97;14.04
73974;BME280;62336;-26.094;27.994;2023-04-24T06:08:48;85036.28;;;31.12;14.06
73974;BME280;62336;-26.094;27.994;2023-04-24T06:11:13;85041.65;;;31.58;14.12
73974;BME280;62336;-26.094;27.994;2023-04-24T06:13:37;85043.84;;;31.77;14.43
73974;BME280;62336;-26.094;27.994;2023-04-24T06:16:04;85045.57;;;32.12;13.51
73974;BME280;62336;-26.094;27.994;2023-04-24T06:18:29;85047.46;;;31.49;13.78
73974;BME280;62336;-26.094;27.994;2023-04-24T06:20:54;85052.04;;;31.65;13.76
73974;BME280;62336;-26.094;27.994;2023-04-24T06:23:19;85051.11;;;31.82;12.91
73974;BME280;62336;-26.094;27.994;2023-04-24T06:25:47;85050.43;;;31.58;12.82
73974;BME280;62336;-26.094;27.994;2023-04-24T06:28:11;85050.16;;;31.43;13.47
73974;BME280;62336;-26.094;27.994;2023-04-24T06:30:42;85055.36;;;31.88;12.15
73974;BME280;62336;-26.094;27.994;2023-04-24T06:33:06;85056.67;;;32.30;11.33
73974;BME280;62336;-26.094;27.994;2023-04-24T06:35:26;85058.01;;;32.25;11.08
73974;BME280;62336;-26.094;27.994;2023-04-24T06:37:52;85053.91;;;32.12;10.77
73974;BME280;62336;-26.094;27.994;2023-04-24T06:40:17;85055.48;;;32.45;11.01
73974;BME280;62336;-26.094;27.994;2023-04-24T06:42:42;85058.51;;;32.36;11.00
73974;BME280;62336;-26.094;27.994;2023-04-24T06:45:08;85061.77;;;32.65;10.79
73974;BME280;62336;-26.094;27.994;2023-04-24T06:47:32;85061.89;;;32.92;10.58
73974;BME280;62336;-26.094;27.994;2023-04-24T06:49:57;85064.34;;;32.87;10.57
73974;BME280;62336;-26.094;27.994;2023-04-24T06:52:24;85067.05;;;33.11;10.40
73974;BME280;62336;-26.094;27.994;2023-04-24T06:54:48;85064.57;;;33.28;10.92
73974;BME280;62336;-26.094;27.994;2023-04-24T06:57:14;85066.63;;;33.80;10.57
73974;BME280;62336;-26.094;27.994;2023-04-24T06:59:39;85065.12;;;33.66;10.59
73974;BME280;62336;-26.094;27.994;2023-04-24T07:02:05;85061.24;;;33.72;10.42
73974;BME280;62336;-26.094;27.994;2023-04-24T07:04:30;85062.16;;;33.72;10.56
73974;BME280;62336;-26.094;27.994;2023-04-24T07:06:55;85064.15;;;34.26;10.13
73974;BME280;62336;-26.094;27.994;2023-04-24T07:09:20;85065.19;;;34.34;10.18
73974;BME280;62336;-26.094;27.994;2023-04-24T07:11:46;85061.56;;;34.01;10.11
73974;BME280;62336;-26.094;27.994;2023-04-24T07:14:11;85066.19;;;34.22;9.61
73974;BME280;62336;-26.094;27.994;2023-04-24T07:16:36;85067.25;;;34.07;9.70
73974;BME280;62336;-26.094;27.994;2023-04-24T07:19:02;85067.00;;;34.15;9.49
73974;BME280;62336;-26.094;27.994;2023-04-24T07:21:27;85071.28;;;34.63;9.27
73974;BME280;62336;-26.094;27.994;2023-04-24T07:23:52;85072.64;;;34.75;9.24
73974;BME280;62336;-26.094;27.994;2023-04-24T07:26:19;85072.32;;;34.57;9.50
73974;BME280;62336;-26.094;27.994;2023-04-24T07:28:43;85071.08;;;34.78;9.45
73974;BME280;62336;-26.094;27.994;2023-04-24T07:31:10;85071.82;;;34.88;9.37
73974;BME280;62336;-26.094;27.994;2023-04-24T07:33:34;85074.80;;;34.64;9.43
73974;BME280;62336;-26.094;27.994;2023-04-24T07:35:59;85074.30;;;35.14;9.38
73974;BME280;62336;-26.094;27.994;2023-04-24T07:38:24;85076.89;;;35.11;9.48
73974;BME280;62336;-26.094;27.994;2023-04-24T07:40:49;85078.03;;;35.27;9.93
73974;BME280;62336;-26.094;27.994;2023-04-24T07:43:15;85077.44;;;35.10;9.72
73974;BME280;62336;-26.094;27.994;2023-04-24T07:45:39;85086.58;;;34.63;9.58
73974;BME280;62336;-26.094;27.994;2023-04-24T07:48:05;85083.80;;;35.47;8.86
73974;BME280;62336;-26.094;27.994;2023-04-24T07:50:31;85084.80;;;35.24;9.10
73974;BME280;62336;-26.094;27.994;2023-04-24T07:52:56;85087.17;;;35.45;9.30
73974;BME280;62336;-26.094;27.994;2023-04-24T07:55:21;85088.90;;;35.48;9.30
73974;BME280;62336;-26.094;27.994;2023-04-24T07:57:47;85089.35;;;35.45;9.29
73974;BME280;62336;-26.094;27.994;2023-04-24T08:00:14;85090.63;;;35.62;9.51
73974;BME280;62336;-26.094;27.994;2023-04-24T08:02:38;85092.41;;;35.55;9.07
73974;BME280;62336;-26.094;27.994;2023-04-24T08:05:04;85094.20;;;35.72;8.79
73974;BME280;62336;-26.094;27.994;2023-04-24T08:07:29;85094.43;;;35.83;8.50
73974;BME280;62336;-26.094;27.994;2023-04-24T08:09:54;85090.92;;;35.83;8.45
73974;BME280;62336;-26.094;27.994;2023-04-24T08:12:19;85088.78;;;35.91;8.53
73974;BME280;62336;-26.094;27.994;2023-04-24T08:14:44;85089.50;;;35.94;8.18
73974;BME280;62336;-26.094;27.994;2023-04-24T08:17:10;85090.55;;;35.89;8.21
73974;BME280;62336;-26.094;27.994;2023-04-24T08:19:35;85085.97;;;36.15;8.08
73974;BME280;62336;-26.094;27.994;2023-04-24T08:22:01;85086.27;;;36.36;8.23
73974;BME280;62336;-26.094;27.994;2023-04-24T08:24:26;85086.37;;;36.60;8.24
73974;BME280;62336;-26.094;27.994;2023-04-24T08:26:51;85085.04;;;36.56;7.91
73974;BME280;62336;-26.094;27.994;2023-04-24T08:29:16;85082.15;;;36.34;8.52
73974;BME280;62336;-26.094;27.994;2023-04-24T08:31:42;85079.19;;;36.73;8.48
73974;BME280;62336;-26.094;27.994;2023-04-24T08:34:08;85074.60;;;36.50;8.49
73974;BME280;62336;-26.094;27.994;2023-04-24T08:36:33;85074.35;;;36.97;8.51
73974;BME280;62336;-26.094;27.994;2023-04-24T08:38:59;85071.51;;;37.18;8.07
73974;BME280;62336;-26.094;27.994;2023-04-24T08:41:24;85070.32;;;36.58;8.49
73974;BME280;62336;-26.094;27.994;2023-04-24T08:43:51;85067.85;;;36.69;8.72
73974;BME280;62336;-26.094;27.994;2023-04-24T08:46:16;85064.75;;;36.77;8.71
73974;BME280;62336;-26.094;27.994;2023-04-24T08:48:42;85062.36;;;36.71;8.79
73974;BME280;62336;-26.094;27.994;2023-04-24T08:51:07;85061.84;;;37.09;8.68
73974;BME280;62336;-26.094;27.994;2023-04-24T08:53:33;85063.59;;;37.19;8.78
73974;BME280;62336;-26.094;27.994;2023-04-24T08:55:57;85063.12;;;37.40;8.51
73974;BME280;62336;-26.094;27.994;2023-04-24T08:58:24;85061.23;;;36.98;8.47
73974;BME280;62336;-26.094;27.994;2023-04-24T09:00:48;85058.04;;;37.09;8.61
73974;BME280;62336;-26.094;27.994;2023-04-24T09:03:16;85055.64;;;37.49;8.70
73974;BME280;62336;-26.094;27.994;2023-04-24T09:05:39;85056.41;;;37.21;8.13
73974;BME280;62336;-26.094;27.994;2023-04-24T09:08:05;85052.77;;;37.35;7.52
73974;BME280;62336;-26.094;27.994;2023-04-24T09:10:30;85049.42;;;37.34;7.59
73974;BME280;62336;-26.094;27.994;2023-04-24T09:12:55;85055.41;;;37.65;7.54
73974;BME280;62336;-26.094;27.994;2023-04-24T09:15:20;85051.60;;;37.35;7.82
73974;BME280;62336;-26.094;27.994;2023-04-24T09:17:46;85045.70;;;37.30;7.41
73974;BME280;62336;-26.094;27.994;2023-04-24T09:20:11;85042.85;;;37.80;7.19
73974;BME280;62336;-26.094;27.994;2023-04-24T09:22:37;85039.46;;;37.71;7.19
73974;BME280;62336;-26.094;27.994;2023-04-24T09:25:04;85036.20;;;37.91;7.56
73974;BME280;62336;-26.094;27.994;2023-04-24T09:27:28;85034.74;;;37.59;7.40
73974;BME280;62336;-26.094;27.994;2023-04-24T09:29:57;85028.69;;;38.10;7.14
73974;BME280;62336;-26.094;27.994;2023-04-24T09:32:20;85026.30;;;37.94;7.10
73974;BME280;62336;-26.094;27.994;2023-04-24T09:34:44;85025.59;;;37.96;7.29
73974;BME280;62336;-26.094;27.994;2023-04-24T09:37:09;85019.84;;;38.29;7.07
73974;BME280;62336;-26.094;27.994;2023-04-24T09:39:34;85017.31;;;38.12;7.18
73974;BME280;62336;-26.094;27.994;2023-04-24T09:42:02;85015.29;;;37.73;7.14
73974;BME280;62336;-26.094;27.994;2023-04-24T09:44:27;85015.23;;;37.86;7.21
73974;BME280;62336;-26.094;27.994;2023-04-24T09:46:53;85014.47;;;38.21;7.37
73974;BME280;62336;-26.094;27.994;2023-04-24T09:49:22;85007.64;;;38.57;6.78
73974;BME280;62336;-26.094;27.994;2023-04-24T09:51:43;84998.55;;;37.96;7.34
73974;BME280;62336;-26.094;27.994;2023-04-24T09:54:15;84992.79;;;38.51;7.14
73974;BME280;62336;-26.094;27.994;2023-04-24T09:56:34;84990.60;;;38.10;7.17
73974;BME280;62336;-26.094;27.994;2023-04-24T09:59:05;84986.59;;;37.92;7.12
73974;BME280;62336;-26.094;27.994;2023-04-24T10:01:30;84978.19;;;37.90;7.38
73974;BME280;62336;-26.094;27.994;2023-04-24T10:03:49;84974.80;;;38.40;7.33
73974;BME280;62336;-26.094;27.994;2023-04-24T10:06:15;84973.89;;;38.54;7.01
73974;BME280;62336;-26.094;27.994;2023-04-24T10:08:40;84967.12;;;38.62;6.87
73974;BME280;62336;-26.094;27.994;2023-04-24T10:11:06;84956.78;;;38.65;7.02
73974;BME280;62336;-26.094;27.994;2023-04-24T10:13:31;84955.63;;;38.57;7.27
73974;BME280;62336;-26.094;27.994;2023-04-24T10:15:56;84952.05;;;38.83;7.00
73974;BME280;62336;-26.094;27.994;2023-04-24T10:18:21;84948.02;;;38.58;7.05
73974;BME280;62336;-26.094;27.994;2023-04-24T10:20:47;84942.86;;;38.82;6.99
73974;BME280;62336;-26.094;27.994;2023-04-24T10:23:12;84938.37;;;38.72;7.15
73974;BME280;62336;-26.094;27.994;2023-04-24T10:25:38;84935.89;;;39.00;6.66
73974;BME280;62336;-26.094;27.994;2023-04-24T10:28:04;84928.24;;;38.88;6.76
73974;BME280;62336;-26.094;27.994;2023-04-24T10:30:30;84923.84;;;39.02;7.04
73974;BME280;62336;-26.094;27.994;2023-04-24T10:32:53;84920.10;;;38.88;6.34
73974;BME280;62336;-26.094;27.994;2023-04-24T10:35:20;84912.07;;;39.15;6.44
73974;BME280;62336;-26.094;27.994;2023-04-24T10:37:48;84916.37;;;39.55;6.30
73974;BME280;62336;-26.094;27.994;2023-04-24T10:40:11;84918.39;;;39.43;6.25
73974;BME280;62336;-26.094;27.994;2023-04-24T10:42:36;84911.88;;;39.27;6.37
73974;BME280;62336;-26.094;27.994;2023-04-24T10:45:05;84908.94;;;39.17;5.84
73974;BME280;62336;-26.094;27.994;2023-04-24T10:47:26;84903.28;;;38.96;6.18
73974;BME280;62336;-26.094;27.994;2023-04-24T10:49:51;84907.61;;;39.10;6.34
73974;BME280;62336;-26.094;27.994;2023-04-24T10:52:16;84909.84;;;39.37;5.44
73974;BME280;62336;-26.094;27.994;2023-04-24T10:54:44;84903.24;;;39.45;5.53
73974;BME280;62336;-26.094;27.994;2023-04-24T10:59:35;84901.91;;;39.30;5.71
73974;BME280;62336;-26.094;27.994;2023-04-24T11:01:59;84896.47;;;39.19;5.78
73974;BME280;62336;-26.094;27.994;2023-04-24T11:04:30;84895.05;;;39.10;6.26
73974;BME280;62336;-26.094;27.994;2023-04-24T11:06:48;84892.18;;;39.13;6.10
73974;BME280;62336;-26.094;27.994;2023-04-24T11:09:15;84890.97;;;39.08;6.04
73974;BME280;62336;-26.094;27.994;2023-04-24T11:11:43;84897.47;;;39.62;5.63
73974;BME280;62336;-26.094;27.994;2023-04-24T11:14:05;84899.99;;;39.63;5.59
73974;BME280;62336;-26.094;27.994;2023-04-24T11:16:30;84894.94;;;39.48;5.45
73974;BME280;62336;-26.094;27.994;2023-04-24T11:19:05;84892.52;;;39.13;5.89
73974;BME280;62336;-26.094;27.994;2023-04-24T11:21:20;84886.84;;;39.41;5.82
73974;BME280;62336;-26.094;27.994;2023-04-24T11:23:45;84878.76;;;39.48;5.24
73974;BME280;62336;-26.094;27.994;2023-04-24T11:26:17;84874.93;;;39.27;5.39
73974;BME280;62336;-26.094;27.994;2023-04-24T11:28:34;84869.25;;;39.33;5.58
73974;BME280;62336;-26.094;27.994;2023-04-24T11:33:25;84866.85;;;39.57;5.50
73974;BME280;62336;-26.094;27.994;2023-04-24T11:35:51;84859.80;;;39.83;5.16
73974;BME280;62336;-26.094;27.994;2023-04-24T11:38:17;84859.47;;;39.74;5.48
73974;BME280;62336;-26.094;27.994;2023-04-24T11:40:42;84851.68;;;39.19;5.45
73974;BME280;62336;-26.094;27.994;2023-04-24T11:43:07;84851.07;;;39.87;5.12
73974;BME280;62336;-26.094;27.994;2023-04-24T11:45:31;84852.34;;;39.67;5.57
73974;BME280;62336;-26.094;27.994;2023-04-24T11:47:57;84850.91;;;39.75;5.25
73974;BME280;62336;-26.094;27.994;2023-04-24T11:50:25;84855.09;;;39.91;5.17
73974;BME280;62336;-26.094;27.994;2023-04-24T11:52:49;84860.11;;;39.82;5.45
73974;BME280;62336;-26.094;27.994;2023-04-24T11:55:23;84856.67;;;39.79;5.28
73974;BME280;62336;-26.094;27.994;2023-04-24T11:57:39;84850.03;;;39.72;5.54
73974;BME280;62336;-26.094;27.994;2023-04-24T12:00:05;84844.74;;;39.99;6.41
73974;BME280;62336;-26.094;27.994;2023-04-24T12:02:30;84847.47;;;40.12;5.60
73974;BME280;62336;-26.094;27.994;2023-04-24T12:04:55;84842.61;;;39.90;5.37
73974;BME280;62336;-26.094;27.994;2023-04-24T12:07:22;84838.67;;;39.84;5.32
73974;BME280;62336;-26.094;27.994;2023-04-24T12:09:47;84840.06;;;39.89;5.47
73974;BME280;62336;-26.094;27.994;2023-04-24T12:12:13;84839.03;;;40.00;5.67
73974;BME280;62336;-26.094;27.994;2023-04-24T12:14:43;84843.16;;;39.94;6.00
73974;BME280;62336;-26.094;27.994;2023-04-24T12:17:03;84841.80;;;39.68;5.44
73974;BME280;62336;-26.094;27.994;2023-04-24T12:19:30;84842.25;;;39.70;5.00
73974;BME280;62336;-26.094;27.994;2023-04-24T12:22:01;84841.36;;;39.85;5.20
73974;BME280;62336;-26.094;27.994;2023-04-24T12:24:19;84839.46;;;40.22;5.10
73974;BME280;62336;-26.094;27.994;2023-04-24T12:26:44;84834.48;;;39.75;5.54
73974;BME280;62336;-26.094;27.994;2023-04-24T12:29:10;84836.95;;;39.52;5.44
73974;BME280;62336;-26.094;27.994;2023-04-24T12:31:36;84841.84;;;39.98;5.26
73974;BME280;62336;-26.094;27.994;2023-04-24T12:34:01;84838.02;;;40.39;5.42
73974;BME280;62336;-26.094;27.994;2023-04-24T12:36:26;84840.82;;;40.18;5.53
73974;BME280;62336;-26.094;27.994;2023-04-24T12:38:53;84843.56;;;40.66;4.75